Time,TemperatureF,DewpointF,PressureIn,WindDirection,WindDirectionDegrees,WindSpeedMPH,WindSpeedGustMPH,Humidity,HourlyPrecipIn,Conditions,Clouds,dailyrainin,SoftwareType,DateUTC
2013-01-20 00:00:00,39.6,27.2,30.01,SW,226,3.0,7.0,61,0.00,CLR,,0.00,WeatherDisplay:10.37,2013-01-20 05:00:00,
2013-01-20 00:15:00,40.1,27.7,30.01,SW,221,5.0,7.0,61,0.00,CLR,,0.00,WeatherDisplay:10.37,2013-01-20 05:15:00,
2013-01-20 00:30:00,39.6,27.2,30.01,SW,219,5.0,7.0,61,0.00,CLR,,0.00,WeatherDisplay:10.37,2013-01-20 05:30:00,
2013-01-20 00:45:00,40.3,27.1,29.99,SW,223,5.0,7.0,59,0.00,CLR,,0.00,WeatherDisplay:10.37,2013-01-20 05:45:00,
2013-01-20 01:00:00,39.6,26.8,29.99,SSW,208,3.0,7.0,60,0.00,CLR,,0.00,WeatherDisplay:10.37,2013-01-20 06:00:00,
2013-01-20 01:15:00,39.6,26.8,29.99,SSW,196,3.0,8.0,60,0.00,CLR,,0.00,WeatherDisplay:10.37,2013-01-20 06:15:00,
2013-01-20 01:30:00,39.4,26.6,29.99,SW,216,2.0,7.0,60,0.00,CLR,,0.00,WeatherDisplay:10.37,2013-01-20 06:30:00,
2013-01-20 01:45:00,39.7,26.6,29.95,SSW,200,5.0,8.0,59,0.00,CLR,,0.00,WeatherDisplay:10.37,2013-01-20 06:45:00,
2013-01-20 02:00:00,39.6,26.4,29.95,SSW,200,3.0,7.0,59,0.00,CLR,,0.00,WeatherDisplay:10.37,2013-01-20 07:00:00,
2013-01-20 02:15:00,39.6,26.4,29.95,SSW,200,2.0,6.0,59,0.00,CLR,,0.00,WeatherDisplay:10.37,2013-01-20 07:15:00,
2013-01-20 02:30:00,39.9,26.7,29.95,SW,214,2.0,5.0,59,0.00,CLR,,0.00,WeatherDisplay:10.37,2013-01-20 07:30:00,
2013-01-20 02:45:00,40.3,26.2,29.95,SSW,197,5.0,8.0,57,0.00,CLR,,0.00,WeatherDisplay:10.37,2013-01-20 07:45:00,
2013-01-20 03:00:00,40.3,26.7,29.95,SW,218,3.0,6.0,58,0.00,CLR,,0.00,WeatherDisplay:10.37,2013-01-20 08:00:00,
2013-01-20 03:15:00,40.6,26.6,29.93,SSW,208,6.0,10.0,57,0.00,CLR,,0.00,WeatherDisplay:10.37,2013-01-20 08:15:00,
2013-01-20 03:30:00,40.6,27.0,29.93,SSW,211,5.0,8.0,58,0.00,CLR,,0.00,WeatherDisplay:10.37,2013-01-20 08:30:00,
2013-01-20 03:45:00,40.5,27.2,29.93,SW,231,5.0,8.0,59,0.00,CLR,,0.00,WeatherDisplay:10.37,2013-01-20 08:45:00,
2013-01-20 04:00:00,40.5,27.2,29.93,SW,226,3.0,9.0,59,0.00,CLR,,0.00,WeatherDisplay:10.37,2013-01-20 09:00:00,
2013-01-20 04:15:00,41.0,26.9,29.93,SW,221,5.0,7.0,57,0.00,CLR,,0.00,WeatherDisplay:10.37,2013-01-20 09:15:00,
2013-01-20 04:30:00,41.4,26.8,29.90,SW,225,7.0,11.0,56,0.00,CLR,,0.00,WeatherDisplay:10.37,2013-01-20 09:30:00,
2013-01-20 04:45:00,41.4,27.3,29.90,SSW,200,6.0,9.0,57,0.00,CLR,,0.00,WeatherDisplay:10.37,2013-01-20 09:45:00,
2013-01-20 05:00:00,42.1,27.5,29.90,SW,232,5.0,13.0,56,0.00,CLR,,0.00,WeatherDisplay:10.37,2013-01-20 10:00:00,
2013-01-20 05:15:00,42.3,27.2,29.90,WSW,238,8.0,13.0,55,0.00,CLR,,0.00,WeatherDisplay:10.37,2013-01-20 10:15:00,
2013-01-20 05:30:00,42.1,27.5,29.90,WSW,242,7.0,12.0,56,0.00,CLR,,0.00,WeatherDisplay:10.37,2013-01-20 10:30:00,
2013-01-20 05:45:00,41.9,28.2,29.90,SW,217,3.0,7.0,58,0.00,CLR,,0.00,WeatherDisplay:10.37,2013-01-20 10:45:00,
2013-01-20 06:00:00,42.1,28.4,29.87,SW,223,6.0,9.0,58,0.00,CLR,,0.00,WeatherDisplay:10.37,2013-01-20 11:00:00,
2013-01-20 06:15:00,41.0,27.8,29.87,SW,230,7.0,9.0,59,0.00,CLR,,0.00,WeatherDisplay:10.37,2013-01-20 11:15:00,
2013-01-20 06:30:00,41.2,27.5,29.87,SW,234,7.0,12.0,58,0.00,CLR,,0.00,WeatherDisplay:10.37,2013-01-20 11:30:00,
2013-01-20 06:45:00,41.2,27.9,29.87,SW,233,8.0,11.0,59,0.00,CLR,,0.00,WeatherDisplay:10.37,2013-01-20 11:45:00,
2013-01-20 07:00:00,41.0,28.2,29.87,WSW,239,6.0,8.0,60,0.00,CLR,,0.00,WeatherDisplay:10.37,2013-01-20 12:00:00,
2013-01-20 07:15:00,40.5,28.1,29.87,WSW,241,6.0,8.0,61,0.00,CLR,,0.00,WeatherDisplay:10.37,2013-01-20 12:15:00,
2013-01-20 07:30:00,40.1,28.1,29.87,SW,223,6.0,7.0,62,0.00,CLR,,0.00,WeatherDisplay:10.37,2013-01-20 12:30:00,
2013-01-20 07:45:00,40.1,28.1,29.87,SW,231,6.0,8.0,62,0.00,CLR,,0.00,WeatherDisplay:10.37,2013-01-20 12:45:00,
2013-01-20 08:00:00,40.6,29.0,29.87,SW,236,5.0,6.0,63,0.00,CLR,,0.00,WeatherDisplay:10.37,2013-01-20 13:00:00,
2013-01-20 08:15:00,41.7,28.8,29.87,WSW,238,3.0,10.0,60,0.00,CLR,,0.00,WeatherDisplay:10.37,2013-01-20 13:15:00,
2013-01-20 08:30:00,42.8,29.5,29.87,WSW,242,3.0,6.0,59,0.00,CLR,,0.00,WeatherDisplay:10.37,2013-01-20 13:30:00,
2013-01-20 08:45:00,43.9,29.6,29.87,WSW,237,5.0,10.0,57,0.00,CLR,,0.00,WeatherDisplay:10.37,2013-01-20 13:45:00,
2013-01-20 09:00:00,44.6,29.4,29.87,WSW,243,7.0,10.0,55,0.00,CLR,,0.00,WeatherDisplay:10.37,2013-01-20 14:00:00,
2013-01-20 09:15:00,45.7,30.4,29.87,SW,224,6.0,8.0,55,0.00,CLR,,0.00,WeatherDisplay:10.37,2013-01-20 14:15:00,
2013-01-20 09:30:00,46.4,30.6,29.87,WSW,240,6.0,8.0,54,0.00,CLR,,0.00,WeatherDisplay:10.37,2013-01-20 14:30:00,
2013-01-20 09:45:00,47.3,30.5,29.87,SSW,210,6.0,9.0,52,0.00,CLR,,0.00,WeatherDisplay:10.37,2013-01-20 14:45:00,
2013-01-20 10:00:00,48.4,31.1,29.87,SW,231,7.0,9.0,51,0.00,CLR,,0.00,WeatherDisplay:10.37,2013-01-20 15:00:00,
2013-01-20 10:15:00,49.6,31.2,29.90,SW,228,5.0,10.0,49,0.00,CLR,,0.00,WeatherDisplay:10.37,2013-01-20 15:15:00,
2013-01-20 10:30:00,50.0,31.6,29.87,WSW,247,7.0,10.0,49,0.00,CLR,,0.00,WeatherDisplay:10.37,2013-01-20 15:30:00,
2013-01-20 10:45:00,50.7,31.7,29.87,WSW,239,7.0,11.0,48,0.00,CLR,,0.00,WeatherDisplay:10.37,2013-01-20 15:45:00,
2013-01-20 11:00:00,50.9,30.3,29.87,WSW,242,7.0,10.0,45,0.00,CLR,,0.00,WeatherDisplay:10.37,2013-01-20 16:00:00,
2013-01-20 11:15:00,52.3,31.6,29.87,WSW,242,8.0,10.0,45,0.00,CLR,,0.00,WeatherDisplay:10.37,2013-01-20 16:15:00,
2013-01-20 11:30:00,52.7,31.4,29.87,WSW,240,9.0,15.0,44,0.00,CLR,,0.00,WeatherDisplay:10.37,2013-01-20 16:30:00,
2013-01-20 11:45:00,53.4,32.0,29.84,WSW,247,7.0,9.0,44,0.00,CLR,,0.00,WeatherDisplay:10.37,2013-01-20 16:45:00,
2013-01-20 12:00:00,54.3,31.1,29.84,SW,223,7.0,13.0,41,0.00,CLR,,0.00,WeatherDisplay:10.37,2013-01-20 17:00:00,
2013-01-20 12:15:00,54.0,30.8,29.81,WSW,249,8.0,13.0,41,0.00,CLR,,0.00,WeatherDisplay:10.37,2013-01-20 17:15:00,
2013-01-20 12:30:00,54.1,30.3,29.81,WSW,237,8.0,12.0,40,0.00,CLR,,0.00,WeatherDisplay:10.37,2013-01-20 17:30:00,
2013-01-20 12:45:00,54.5,30.0,29.81,West,260,7.0,12.0,39,0.00,CLR,,0.00,WeatherDisplay:10.37,2013-01-20 17:45:00,
2013-01-20 13:00:00,55.0,30.5,29.81,WSW,252,8.0,12.0,39,0.00,CLR,,0.00,WeatherDisplay:10.37,2013-01-20 18:00:00,
2013-01-20 13:15:00,55.0,31.1,29.81,WSW,251,8.0,12.0,40,0.00,CLR,,0.00,WeatherDisplay:10.37,2013-01-20 18:15:00,
2013-01-20 13:30:00,54.7,32.0,29.81,WSW,255,7.0,9.0,42,0.00,CLR,,0.00,WeatherDisplay:10.37,2013-01-20 18:30:00,
2013-01-20 13:45:00,54.0,30.8,29.81,WSW,256,8.0,12.0,41,0.00,CLR,,0.00,WeatherDisplay:10.37,2013-01-20 18:45:00,
2013-01-20 14:00:00,54.0,30.8,29.81,West,278,9.0,12.0,41,0.00,CLR,,0.00,WeatherDisplay:10.37,2013-01-20 19:00:00,
2013-01-20 14:15:00,54.1,29.7,29.81,West,279,9.0,12.0,39,0.00,CLR,,0.00,WeatherDisplay:10.37,2013-01-20 19:15:00,
2013-01-20 14:30:00,54.7,30.2,29.81,West,267,9.0,11.0,39,0.00,CLR,,0.00,WeatherDisplay:10.37,2013-01-20 19:30:00,
2013-01-20 14:45:00,54.0,29.5,29.81,West,278,9.0,10.0,39,0.00,CLR,,0.00,WeatherDisplay:10.37,2013-01-20 19:45:00,
2013-01-20 15:00:00,54.5,30.0,29.84,West,280,9.0,10.0,39,0.00,CLR,,0.00,WeatherDisplay:10.37,2013-01-20 20:00:00,
2013-01-20 15:15:00,54.1,29.7,29.84,West,280,10.0,12.0,39,0.00,CLR,,0.00,WeatherDisplay:10.37,2013-01-20 20:15:00,
2013-01-20 15:30:00,53.6,29.2,29.84,WNW,282,10.0,12.0,39,0.00,CLR,,0.00,WeatherDisplay:10.37,2013-01-20 20:30:00,
2013-01-20 15:45:00,52.5,31.2,29.84,West,277,8.0,12.0,44,0.00,CLR,,0.00,WeatherDisplay:10.37,2013-01-20 20:45:00,
2013-01-20 16:00:00,52.2,29.7,29.84,WNW,289,9.0,12.0,42,0.00,CLR,,0.00,WeatherDisplay:10.37,2013-01-20 21:00:00,
2013-01-20 16:15:00,51.6,30.4,29.84,West,277,9.0,10.0,44,0.00,CLR,,0.00,WeatherDisplay:10.37,2013-01-20 21:15:00,
2013-01-20 16:30:00,50.7,29.6,29.87,WNW,288,8.0,10.0,44,0.00,CLR,,0.00,WeatherDisplay:10.37,2013-01-20 21:30:00,
2013-01-20 16:45:00,49.5,30.0,29.87,WNW,302,8.0,10.0,47,0.00,CLR,,0.00,WeatherDisplay:10.37,2013-01-20 21:45:00,
2013-01-20 17:00:00,48.7,28.9,29.87,WNW,300,9.0,15.0,46,0.00,CLR,,0.00,WeatherDisplay:10.37,2013-01-20 22:00:00,
2013-01-20 17:15:00,48.4,28.5,29.87,WNW,284,9.0,12.0,46,0.00,CLR,,0.00,WeatherDisplay:10.37,2013-01-20 22:15:00,
2013-01-20 17:30:00,48.0,29.7,29.90,WNW,288,8.0,10.0,49,0.00,CLR,,0.00,WeatherDisplay:10.37,2013-01-20 22:30:00,
2013-01-20 17:45:00,47.1,29.9,29.90,NW,304,7.0,9.0,51,0.00,CLR,,0.00,WeatherDisplay:10.37,2013-01-20 22:45:00,
2013-01-20 18:00:00,46.4,28.8,29.90,NW,307,7.0,10.0,50,0.00,CLR,,0.00,WeatherDisplay:10.37,2013-01-20 23:00:00,
2013-01-20 18:15:00,46.4,26.7,29.93,NW,316,9.0,11.0,46,0.00,CLR,,0.00,WeatherDisplay:10.37,2013-01-20 23:15:00,
2013-01-20 18:30:00,45.3,27.3,29.93,NW,323,8.0,11.0,49,0.00,CLR,,0.00,WeatherDisplay:10.37,2013-01-20 23:30:00,
2013-01-20 18:45:00,45.3,23.5,29.93,NW,319,9.0,12.0,42,0.00,CLR,,0.00,WeatherDisplay:10.37,2013-01-20 23:45:00,
2013-01-20 19:00:00,44.6,24.0,29.95,NW,324,9.0,12.0,44,0.00,CLR,,0.00,WeatherDisplay:10.37,2013-01-21 00:00:00,
2013-01-20 19:15:00,44.4,26.4,29.95,NNW,328,10.0,14.0,49,0.00,CLR,,0.00,WeatherDisplay:10.37,2013-01-21 00:15:00,
2013-01-20 19:30:00,44.1,25.6,29.95,NNW,330,12.0,15.0,48,0.00,CLR,,0.00,WeatherDisplay:10.37,2013-01-21 00:30:00,
2013-01-20 19:45:00,43.5,23.6,29.95,NW,325,12.0,13.0,45,0.00,CLR,,0.00,WeatherDisplay:10.37,2013-01-21 00:45:00,
2013-01-20 20:00:00,43.3,20.0,29.99,NNW,328,9.0,13.0,39,0.00,CLR,,0.00,WeatherDisplay:10.37,2013-01-21 01:00:00,
2013-01-20 20:15:00,42.6,19.4,29.99,NW,326,9.0,10.0,39,0.00,CLR,,0.00,WeatherDisplay:10.37,2013-01-21 01:15:00,
2013-01-20 20:30:00,41.9,18.7,29.99,NNW,338,8.0,10.0,39,0.00,CLR,,0.00,WeatherDisplay:10.37,2013-01-21 01:30:00,
2013-01-20 20:45:00,41.2,18.1,30.01,NNW,332,9.0,12.0,39,0.00,CLR,,0.00,WeatherDisplay:10.37,2013-01-21 01:45:00,
2013-01-20 21:00:00,41.0,17.9,30.01,NNW,331,12.0,15.0,39,0.00,CLR,,0.00,WeatherDisplay:10.37,2013-01-21 02:00:00,
2013-01-20 21:15:00,40.1,17.1,30.01,NNW,333,10.0,14.0,39,0.00,CLR,,0.00,WeatherDisplay:10.37,2013-01-21 02:15:00,
2013-01-20 21:30:00,39.7,16.8,30.01,NNW,337,9.0,11.0,39,0.00,CLR,,0.00,WeatherDisplay:10.37,2013-01-21 02:30:00,
2013-01-20 21:45:00,39.4,16.4,30.04,NNW,332,10.0,15.0,39,0.00,CLR,,0.00,WeatherDisplay:10.37,2013-01-21 02:45:00,
2013-01-20 22:00:00,38.8,16.0,30.04,NNW,333,10.0,15.0,39,0.00,CLR,,0.00,WeatherDisplay:10.37,2013-01-21 03:00:00,
2013-01-20 22:15:00,38.7,15.8,30.04,NNW,338,12.0,15.0,39,0.00,CLR,,0.00,WeatherDisplay:10.37,2013-01-21 03:15:00,
2013-01-20 22:30:00,37.9,15.1,30.04,NNW,335,12.0,15.0,39,0.00,CLR,,0.00,WeatherDisplay:10.37,2013-01-21 03:30:00,
2013-01-20 22:45:00,38.1,15.3,30.04,NNW,327,14.0,18.0,39,0.00,CLR,,0.00,WeatherDisplay:10.37,2013-01-21 03:45:00,
2013-01-20 23:00:00,37.8,15.0,30.04,NNW,341,14.0,15.0,39,0.00,CLR,,0.00,WeatherDisplay:10.37,2013-01-21 04:00:00,
2013-01-20 23:15:00,37.4,14.7,30.07,NNW,338,10.0,10.0,39,0.00,CLR,,0.00,WeatherDisplay:10.37,2013-01-21 04:15:00,
2013-01-20 23:30:00,37.2,14.5,30.04,NNW,335,10.0,13.0,39,0.00,CLR,,0.00,WeatherDisplay:10.37,2013-01-21 04:30:00,
2013-01-20 23:45:00,36.9,14.2,30.07,NNW,332,10.0,12.0,39,0.00,CLR,,0.00,WeatherDisplay:10.37,2013-01-21 04:45:00,